sensor_id;sensor_type;location;lat;lon;timestamp;P1;durP1;ratioP1;P2;durP2;ratioP2
62711;SDS011;48772;55.586;37.730;2023-05-27T00:00:43;18.23;;;12.10;;
62711;SDS011;48772;55.586;37.730;2023-05-27T00:03:10;16.23;;;9.57;;
62711;SDS011;48772;55.586;37.730;2023-05-27T00:05:36;18.02;;;10.60;;
62711;SDS011;48772;55.586;37.730;2023-05-27T00:08:02;15.75;;;9.85;;
62711;SDS011;48772;55.586;37.730;2023-05-27T00:10:27;14.05;;;8.70;;
62711;SDS011;48772;55.586;37.730;2023-05-27T00:12:53;13.57;;;9.60;;
62711;SDS011;48772;55.586;37.730;2023-05-27T00:15:19;15.85;;;10.10;;
62711;SDS011;48772;55.586;37.730;2023-05-27T00:17:45;13.98;;;8.75;;
62711;SDS011;48772;55.586;37.730;2023-05-27T00:20:11;16.08;;;9.05;;
62711;SDS011;48772;55.586;37.730;2023-05-27T00:22:38;14.15;;;8.65;;
62711;SDS011;48772;55.586;37.730;2023-05-27T00:25:04;16.10;;;8.57;;
62711;SDS011;48772;55.586;37.730;2023-05-27T00:27:30;13.13;;;9.73;;
62711;SDS011;48772;55.586;37.730;2023-05-27T00:29:56;12.23;;;8.90;;
62711;SDS011;48772;55.586;37.730;2023-05-27T00:32:23;17.90;;;8.93;;
62711;SDS011;48772;55.586;37.730;2023-05-27T00:34:49;13.85;;;9.13;;
62711;SDS011;48772;55.586;37.730;2023-05-27T00:37:15;11.35;;;8.70;;
62711;SDS011;48772;55.586;37.730;2023-05-27T00:39:41;9.82;;;8.15;;
62711;SDS011;48772;55.586;37.730;2023-05-27T00:42:06;16.67;;;8.52;;
62711;SDS011;48772;55.586;37.730;2023-05-27T00:44:33;11.98;;;8.68;;
62711;SDS011;48772;55.586;37.730;2023-05-27T00:46:59;11.23;;;8.38;;
62711;SDS011;48772;55.586;37.730;2023-05-27T00:49:25;13.90;;;8.38;;
62711;SDS011;48772;55.586;37.730;2023-05-27T00:51:52;12.43;;;7.97;;
62711;SDS011;48772;55.586;37.730;2023-05-27T00:54:18;11.25;;;7.75;;
62711;SDS011;48772;55.586;37.730;2023-05-27T00:56:44;9.85;;;8.45;;
62711;SDS011;48772;55.586;37.730;2023-05-27T00:59:11;10.35;;;8.77;;
62711;SDS011;48772;55.586;37.730;2023-05-27T01:01:37;13.10;;;7.97;;
62711;SDS011;48772;55.586;37.730;2023-05-27T01:04:04;15.75;;;8.10;;
62711;SDS011;48772;55.586;37.730;2023-05-27T01:11:43;10.68;;;7.90;;
62711;SDS011;48772;55.586;37.730;2023-05-27T01:14:16;10.73;;;7.70;;
62711;SDS011;48772;55.586;37.730;2023-05-27T01:16:43;14.90;;;8.05;;
62711;SDS011;48772;55.586;37.730;2023-05-27T01:19:17;13.55;;;8.35;;
62711;SDS011;48772;55.586;37.730;2023-05-27T01:21:55;10.60;;;8.60;;
62711;SDS011;48772;55.586;37.730;2023-05-27T01:24:24;10.23;;;8.05;;
62711;SDS011;48772;55.586;37.730;2023-05-27T01:26:50;13.27;;;8.52;;
62711;SDS011;48772;55.586;37.730;2023-05-27T01:29:16;10.43;;;7.93;;
62711;SDS011;48772;55.586;37.730;2023-05-27T01:31:53;11.38;;;7.95;;
62711;SDS011;48772;55.586;37.730;2023-05-27T01:34:28;11.00;;;7.88;;
62711;SDS011;48772;55.586;37.730;2023-05-27T01:37:04;12.75;;;8.30;;
62711;SDS011;48772;55.586;37.730;2023-05-27T01:39:33;16.08;;;8.38;;
62711;SDS011;48772;55.586;37.730;2023-05-27T01:41:59;12.95;;;8.55;;
62711;SDS011;48772;55.586;37.730;2023-05-27T01:44:29;13.93;;;8.35;;
62711;SDS011;48772;55.586;37.730;2023-05-27T01:46:59;17.83;;;8.20;;
62711;SDS011;48772;55.586;37.730;2023-05-27T01:49:29;17.15;;;9.00;;
62711;SDS011;48772;55.586;37.730;2023-05-27T01:51:55;10.43;;;7.90;;
62711;SDS011;48772;55.586;37.730;2023-05-27T01:54:22;13.23;;;8.07;;
62711;SDS011;48772;55.586;37.730;2023-05-27T01:56:48;12.85;;;7.82;;
62711;SDS011;48772;55.586;37.730;2023-05-27T01:59:14;11.40;;;7.80;;
62711;SDS011;48772;55.586;37.730;2023-05-27T02:01:41;9.25;;;7.70;;
62711;SDS011;48772;55.586;37.730;2023-05-27T02:04:07;10.15;;;7.82;;
62711;SDS011;48772;55.586;37.730;2023-05-27T02:06:35;11.77;;;8.07;;
62711;SDS011;48772;55.586;37.730;2023-05-27T02:09:02;14.10;;;8.15;;
62711;SDS011;48772;55.586;37.730;2023-05-27T02:11:29;14.32;;;8.32;;
62711;SDS011;48772;55.586;37.730;2023-05-27T02:13:55;9.27;;;7.60;;
62711;SDS011;48772;55.586;37.730;2023-05-27T02:16:25;13.98;;;8.30;;
62711;SDS011;48772;55.586;37.730;2023-05-27T02:18:52;9.85;;;7.85;;
62711;SDS011;48772;55.586;37.730;2023-05-27T02:21:18;10.05;;;8.00;;
62711;SDS011;48772;55.586;37.730;2023-05-27T02:23:44;14.63;;;8.45;;
62711;SDS011;48772;55.586;37.730;2023-05-27T02:26:10;12.77;;;8.15;;
62711;SDS011;48772;55.586;37.730;2023-05-27T02:28:36;8.07;;;7.15;;
62711;SDS011;48772;55.586;37.730;2023-05-27T02:31:02;10.15;;;7.35;;
62711;SDS011;48772;55.586;37.730;2023-05-27T02:33:28;10.27;;;6.70;;
62711;SDS011;48772;55.586;37.730;2023-05-27T02:35:55;9.55;;;6.82;;
62711;SDS011;48772;55.586;37.730;2023-05-27T02:38:21;9.93;;;7.28;;
62711;SDS011;48772;55.586;37.730;2023-05-27T02:40:47;8.68;;;6.50;;
62711;SDS011;48772;55.586;37.730;2023-05-27T02:43:13;9.13;;;7.65;;
62711;SDS011;48772;55.586;37.730;2023-05-27T02:45:39;9.98;;;7.35;;
62711;SDS011;48772;55.586;37.730;2023-05-27T02:48:05;13.65;;;7.55;;
62711;SDS011;48772;55.586;37.730;2023-05-27T02:50:31;11.48;;;7.00;;
62711;SDS011;48772;55.586;37.730;2023-05-27T02:52:57;12.00;;;6.90;;
62711;SDS011;48772;55.586;37.730;2023-05-27T02:55:23;11.95;;;7.22;;
62711;SDS011;48772;55.586;37.730;2023-05-27T02:57:49;14.52;;;7.20;;
62711;SDS011;48772;55.586;37.730;2023-05-27T03:00:15;9.23;;;6.95;;
62711;SDS011;48772;55.586;37.730;2023-05-27T03:02:42;11.45;;;6.97;;
62711;SDS011;48772;55.586;37.730;2023-05-27T03:05:08;9.27;;;7.13;;
62711;SDS011;48772;55.586;37.730;2023-05-27T03:07:34;11.13;;;7.63;;
62711;SDS011;48772;55.586;37.730;2023-05-27T03:10:01;8.98;;;7.30;;
62711;SDS011;48772;55.586;37.730;2023-05-27T03:12:30;9.77;;;7.45;;
62711;SDS011;48772;55.586;37.730;2023-05-27T03:14:56;10.30;;;6.65;;
62711;SDS011;48772;55.586;37.730;2023-05-27T03:17:22;10.80;;;7.45;;
62711;SDS011;48772;55.586;37.730;2023-05-27T03:19:47;9.35;;;7.30;;
62711;SDS011;48772;55.586;37.730;2023-05-27T03:22:14;13.32;;;7.30;;
62711;SDS011;48772;55.586;37.730;2023-05-27T03:24:40;9.68;;;6.63;;
62711;SDS011;48772;55.586;37.730;2023-05-27T03:27:06;8.98;;;7.05;;
62711;SDS011;48772;55.586;37.730;2023-05-27T03:29:35;9.05;;;6.28;;
62711;SDS011;48772;55.586;37.730;2023-05-27T03:32:02;12.88;;;6.40;;
62711;SDS011;48772;55.586;37.730;2023-05-27T03:34:29;7.78;;;6.22;;
62711;SDS011;48772;55.586;37.730;2023-05-27T03:36:55;9.00;;;6.15;;
62711;SDS011;48772;55.586;37.730;2023-05-27T03:39:31;7.00;;;6.30;;
62711;SDS011;48772;55.586;37.730;2023-05-27T03:41:59;9.90;;;6.38;;
62711;SDS011;48772;55.586;37.730;2023-05-27T03:44:26;9.05;;;6.45;;
62711;SDS011;48772;55.586;37.730;2023-05-27T03:46:52;10.38;;;6.25;;
62711;SDS011;48772;55.586;37.730;2023-05-27T03:49:18;9.85;;;5.50;;
62711;SDS011;48772;55.586;37.730;2023-05-27T03:51:44;9.55;;;6.57;;
62711;SDS011;48772;55.586;37.730;2023-05-27T03:54:11;8.40;;;5.97;;
62711;SDS011;48772;55.586;37.730;2023-05-27T03:56:37;9.70;;;6.22;;
62711;SDS011;48772;55.586;37.730;2023-05-27T03:59:04;10.23;;;5.95;;
62711;SDS011;48772;55.586;37.730;2023-05-27T04:01:32;7.50;;;5.32;;
62711;SDS011;48772;55.586;37.730;2023-05-27T04:03:57;9.82;;;5.80;;
62711;SDS011;48772;55.586;37.730;2023-05-27T04:06:23;9.80;;;5.50;;
62711;SDS011;48772;55.586;37.730;2023-05-27T04:08:51;8.23;;;5.57;;
62711;SDS011;48772;55.586;37.730;2023-05-27T04:11:16;9.23;;;4.80;;
62711;SDS011;48772;55.586;37.730;2023-05-27T04:13:43;11.15;;;5.03;;
62711;SDS011;48772;55.586;37.730;2023-05-27T04:16:09;8.23;;;5.18;;
62711;SDS011;48772;55.586;37.730;2023-05-27T04:18:35;9.35;;;5.03;;
62711;SDS011;48772;55.586;37.730;2023-05-27T04:21:02;7.55;;;4.55;;
62711;SDS011;48772;55.586;37.730;2023-05-27T04:23:30;8.13;;;4.80;;
62711;SDS011;48772;55.586;37.730;2023-05-27T04:25:56;7.10;;;4.20;;
62711;SDS011;48772;55.586;37.730;2023-05-27T04:28:26;16.20;;;4.38;;
62711;SDS011;48772;55.586;37.730;2023-05-27T04:30:52;5.15;;;4.65;;
62711;SDS011;48772;55.586;37.730;2023-05-27T04:33:35;7.25;;;4.60;;
62711;SDS011;48772;55.586;37.730;2023-05-27T04:36:01;5.00;;;4.50;;
62711;SDS011;48772;55.586;37.730;2023-05-27T04:38:35;8.20;;;4.03;;
62711;SDS011;48772;55.586;37.730;2023-05-27T04:41:04;8.50;;;4.57;;
62711;SDS011;48772;55.586;37.730;2023-05-27T04:43:56;8.30;;;4.78;;
62711;SDS011;48772;55.586;37.730;2023-05-27T04:46:32;6.95;;;4.10;;
62711;SDS011;48772;55.586;37.730;2023-05-27T04:48:58;7.80;;;4.15;;
62711;SDS011;48772;55.586;37.730;2023-05-27T04:51:26;7.93;;;4.10;;
62711;SDS011;48772;55.586;37.730;2023-05-27T04:53:52;10.00;;;3.97;;
62711;SDS011;48772;55.586;37.730;2023-05-27T04:56:22;7.32;;;4.10;;
62711;SDS011;48772;55.586;37.730;2023-05-27T04:58:49;6.90;;;3.80;;
62711;SDS011;48772;55.586;37.730;2023-05-27T05:01:20;4.85;;;3.83;;
62711;SDS011;48772;55.586;37.730;2023-05-27T05:04:08;7.85;;;4.28;;
62711;SDS011;48772;55.586;37.730;2023-05-27T05:06:45;8.45;;;3.95;;
62711;SDS011;48772;55.586;37.730;2023-05-27T05:09:12;11.93;;;4.07;;
62711;SDS011;48772;55.586;37.730;2023-05-27T05:11:38;7.28;;;4.00;;
62711;SDS011;48772;55.586;37.730;2023-05-27T05:14:06;8.82;;;4.00;;
62711;SDS011;48772;55.586;37.730;2023-05-27T05:16:33;11.65;;;3.70;;
62711;SDS011;48772;55.586;37.730;2023-05-27T05:18:59;12.23;;;3.90;;
62711;SDS011;48772;55.586;37.730;2023-05-27T05:21:29;10.02;;;3.72;;
62711;SDS011;48772;55.586;37.730;2023-05-27T05:23:56;10.70;;;3.70;;
62711;SDS011;48772;55.586;37.730;2023-05-27T05:26:22;6.13;;;3.47;;
62711;SDS011;48772;55.586;37.730;2023-05-27T05:28:48;5.63;;;3.65;;
62711;SDS011;48772;55.586;37.730;2023-05-27T05:31:14;5.22;;;3.47;;
62711;SDS011;48772;55.586;37.730;2023-05-27T05:33:40;6.53;;;3.63;;
62711;SDS011;48772;55.586;37.730;2023-05-27T05:36:07;6.75;;;3.47;;
62711;SDS011;48772;55.586;37.730;2023-05-27T05:38:55;9.07;;;3.42;;
62711;SDS011;48772;55.586;37.730;2023-05-27T05:41:21;6.00;;;3.67;;
62711;SDS011;48772;55.586;37.730;2023-05-27T05:43:47;7.80;;;3.03;;
62711;SDS011;48772;55.586;37.730;2023-05-27T05:46:13;7.60;;;3.60;;
62711;SDS011;48772;55.586;37.730;2023-05-27T05:48:39;12.95;;;3.40;;
62711;SDS011;48772;55.586;37.730;2023-05-27T05:51:08;6.03;;;3.38;;
62711;SDS011;48772;55.586;37.730;2023-05-27T05:53:34;6.78;;;3.75;;
62711;SDS011;48772;55.586;37.730;2023-05-27T05:56:00;7.68;;;2.90;;
62711;SDS011;48772;55.586;37.730;2023-05-27T05:58:26;11.07;;;3.47;;
62711;SDS011;48772;55.586;37.730;2023-05-27T06:00:51;4.75;;;3.05;;
62711;SDS011;48772;55.586;37.730;2023-05-27T06:03:37;8.07;;;3.28;;
62711;SDS011;48772;55.586;37.730;2023-05-27T06:06:05;6.53;;;3.03;;
62711;SDS011;48772;55.586;37.730;2023-05-27T06:08:35;7.32;;;3.10;;
62711;SDS011;48772;55.586;37.730;2023-05-27T06:11:07;3.72;;;2.60;;
62711;SDS011;48772;55.586;37.730;2023-05-27T06:13:33;5.32;;;2.80;;
62711;SDS011;48772;55.586;37.730;2023-05-27T06:16:01;5.35;;;3.25;;
62711;SDS011;48772;55.586;37.730;2023-05-27T06:18:28;6.80;;;2.90;;
62711;SDS011;48772;55.586;37.730;2023-05-27T06:20:54;5.93;;;2.22;;
62711;SDS011;48772;55.586;37.730;2023-05-27T06:23:22;5.75;;;2.70;;
62711;SDS011;48772;55.586;37.730;2023-05-27T06:26:10;5.13;;;2.63;;
62711;SDS011;48772;55.586;37.730;2023-05-27T06:28:42;6.10;;;2.92;;
62711;SDS011;48772;55.586;37.730;2023-05-27T06:31:08;6.70;;;2.40;;
62711;SDS011;48772;55.586;37.730;2023-05-27T06:33:34;7.15;;;2.50;;
62711;SDS011;48772;55.586;37.730;2023-05-27T06:36:00;7.05;;;2.70;;
62711;SDS011;48772;55.586;37.730;2023-05-27T06:38:26;9.63;;;2.70;;
62711;SDS011;48772;55.586;37.730;2023-05-27T06:40:54;10.10;;;2.60;;
62711;SDS011;48772;55.586;37.730;2023-05-27T06:43:20;5.07;;;2.30;;
62711;SDS011;48772;55.586;37.730;2023-05-27T06:46:09;8.15;;;2.60;;
62711;SDS011;48772;55.586;37.730;2023-05-27T06:48:54;4.72;;;2.25;;
62711;SDS011;48772;55.586;37.730;2023-05-27T06:51:20;5.15;;;2.40;;
62711;SDS011;48772;55.586;37.730;2023-05-27T06:53:46;9.45;;;2.88;;
62711;SDS011;48772;55.586;37.730;2023-05-27T06:56:17;6.90;;;2.40;;
62711;SDS011;48772;55.586;37.730;2023-05-27T06:59:02;5.88;;;2.50;;
62711;SDS011;48772;55.586;37.730;2023-05-27T07:01:29;10.65;;;2.47;;
62711;SDS011;48772;55.586;37.730;2023-05-27T07:04:08;6.40;;;2.40;;
62711;SDS011;48772;55.586;37.730;2023-05-27T07:06:44;9.68;;;2.40;;
62711;SDS011;48772;55.586;37.730;2023-05-27T07:09:11;7.85;;;2.60;;
62711;SDS011;48772;55.586;37.730;2023-05-27T07:11:37;6.13;;;2.28;;
62711;SDS011;48772;55.586;37.730;2023-05-27T07:14:08;6.55;;;2.25;;
62711;SDS011;48772;55.586;37.730;2023-05-27T07:16:38;9.25;;;2.20;;
62711;SDS011;48772;55.586;37.730;2023-05-27T07:19:06;3.92;;;2.40;;
62711;SDS011;48772;55.586;37.730;2023-05-27T07:21:39;10.70;;;2.70;;
62711;SDS011;48772;55.586;37.730;2023-05-27T07:24:11;10.13;;;2.50;;
62711;SDS011;48772;55.586;37.730;2023-05-27T07:26:37;10.48;;;2.65;;
62711;SDS011;48772;55.586;37.730;2023-05-27T07:29:04;12.05;;;2.78;;
62711;SDS011;48772;55.586;37.730;2023-05-27T07:31:48;4.65;;;2.45;;
62711;SDS011;48772;55.586;37.730;2023-05-27T07:34:16;6.68;;;2.45;;
62711;SDS011;48772;55.586;37.730;2023-05-27T07:36:42;4.07;;;2.42;;
62711;SDS011;48772;55.586;37.730;2023-05-27T07:39:07;8.02;;;2.33;;
62711;SDS011;48772;55.586;37.730;2023-05-27T07:41:33;6.25;;;2.28;;
62711;SDS011;48772;55.586;37.730;2023-05-27T07:44:01;6.03;;;2.13;;
62711;SDS011;48772;55.586;37.730;2023-05-27T07:46:30;9.55;;;2.22;;
62711;SDS011;48772;55.586;37.730;2023-05-27T07:48:58;5.72;;;1.85;;
62711;SDS011;48772;55.586;37.730;2023-05-27T07:51:25;3.47;;;2.45;;
62711;SDS011;48772;55.586;37.730;2023-05-27T07:53:51;5.03;;;2.20;;
62711;SDS011;48772;55.586;37.730;2023-05-27T07:56:19;6.53;;;2.25;;
62711;SDS011;48772;55.586;37.730;2023-05-27T07:58:45;6.97;;;2.45;;
62711;SDS011;48772;55.586;37.730;2023-05-27T08:01:12;7.45;;;2.50;;
62711;SDS011;48772;55.586;37.730;2023-05-27T08:03:44;5.05;;;2.53;;
62711;SDS011;48772;55.586;37.730;2023-05-27T08:06:27;6.40;;;2.03;;
62711;SDS011;48772;55.586;37.730;2023-05-27T08:09:18;5.65;;;2.30;;
62711;SDS011;48772;55.586;37.730;2023-05-27T08:15:14;6.10;;;2.30;;
62711;SDS011;48772;55.586;37.730;2023-05-27T08:18:03;12.57;;;2.38;;
62711;SDS011;48772;55.586;37.730;2023-05-27T08:20:42;2.83;;;2.10;;
62711;SDS011;48772;55.586;37.730;2023-05-27T08:23:28;7.43;;;2.30;;
62711;SDS011;48772;55.586;37.730;2023-05-27T08:26:22;8.13;;;2.13;;
62711;SDS011;48772;55.586;37.730;2023-05-27T08:29:01;7.78;;;2.20;;
62711;SDS011;48772;55.586;37.730;2023-05-27T08:31:45;6.57;;;2.60;;
62711;SDS011;48772;55.586;37.730;2023-05-27T08:34:11;3.35;;;2.45;;
62711;SDS011;48772;55.586;37.730;2023-05-27T08:36:37;7.32;;;2.30;;
62711;SDS011;48772;55.586;37.730;2023-05-27T08:39:03;4.22;;;2.30;;
62711;SDS011;48772;55.586;37.730;2023-05-27T08:41:35;6.57;;;2.42;;
62711;SDS011;48772;55.586;37.730;2023-05-27T08:44:03;8.82;;;2.28;;
62711;SDS011;48772;55.586;37.730;2023-05-27T08:46:29;7.18;;;2.20;;
62711;SDS011;48772;55.586;37.730;2023-05-27T08:48:56;7.85;;;2.28;;
62711;SDS011;48772;55.586;37.730;2023-05-27T08:51:24;3.42;;;2.22;;
62711;SDS011;48772;55.586;37.730;2023-05-27T08:53:52;6.53;;;2.28;;
62711;SDS011;48772;55.586;37.730;2023-05-27T08:56:19;5.70;;;1.92;;
62711;SDS011;48772;55.586;37.730;2023-05-27T08:58:48;9.30;;;2.97;;
62711;SDS011;48772;55.586;37.730;2023-05-27T09:01:17;6.25;;;2.97;;
62711;SDS011;48772;55.586;37.730;2023-05-27T09:03:45;7.60;;;2.85;;
62711;SDS011;48772;55.586;37.730;2023-05-27T09:06:11;6.25;;;2.25;;
62711;SDS011;48772;55.586;37.730;2023-05-27T09:08:37;7.85;;;2.67;;
62711;SDS011;48772;55.586;37.730;2023-05-27T09:11:25;10.75;;;2.60;;
62711;SDS011;48772;55.586;37.730;2023-05-27T09:13:54;3.97;;;2.30;;
62711;SDS011;48772;55.586;37.730;2023-05-27T09:16:42;6.40;;;2.67;;
62711;SDS011;48772;55.586;37.730;2023-05-27T09:19:15;6.07;;;2.95;;
62711;SDS011;48772;55.586;37.730;2023-05-27T09:24:09;6.28;;;2.58;;
62711;SDS011;48772;55.586;37.730;2023-05-27T09:26:35;6.82;;;2.50;;
62711;SDS011;48772;55.586;37.730;2023-05-27T09:29:09;7.75;;;2.88;;
62711;SDS011;48772;55.586;37.730;2023-05-27T09:31:39;14.23;;;3.10;;
62711;SDS011;48772;55.586;37.730;2023-05-27T09:34:12;9.25;;;2.85;;
62711;SDS011;48772;55.586;37.730;2023-05-27T09:36:58;10.57;;;2.78;;
62711;SDS011;48772;55.586;37.730;2023-05-27T09:39:24;8.60;;;2.63;;
62711;SDS011;48772;55.586;37.730;2023-05-27T09:41:50;6.88;;;2.90;;
62711;SDS011;48772;55.586;37.730;2023-05-27T09:44:28;8.75;;;2.70;;
62711;SDS011;48772;55.586;37.730;2023-05-27T09:46:57;8.15;;;2.85;;
62711;SDS011;48772;55.586;37.730;2023-05-27T09:49:26;9.77;;;2.95;;
62711;SDS011;48772;55.586;37.730;2023-05-27T09:51:54;10.15;;;3.00;;
62711;SDS011;48772;55.586;37.730;2023-05-27T09:54:22;4.55;;;3.10;;
62711;SDS011;48772;55.586;37.730;2023-05-27T09:56:49;7.47;;;3.10;;
62711;SDS011;48772;55.586;37.730;2023-05-27T09:59:15;13.00;;;3.60;;
62711;SDS011;48772;55.586;37.730;2023-05-27T10:01:43;9.07;;;2.85;;
62711;SDS011;48772;55.586;37.730;2023-05-27T10:04:11;9.95;;;3.00;;
62711;SDS011;48772;55.586;37.730;2023-05-27T10:06:56;3.80;;;2.35;;
62711;SDS011;48772;55.586;37.730;2023-05-27T10:12:07;8.05;;;3.00;;
62711;SDS011;48772;55.586;37.730;2023-05-27T10:14:34;9.23;;;3.08;;
62711;SDS011;48772;55.586;37.730;2023-05-27T10:17:00;7.00;;;2.58;;
62711;SDS011;48772;55.586;37.730;2023-05-27T10:19:26;4.90;;;2.95;;
62711;SDS011;48772;55.586;37.730;2023-05-27T10:21:52;7.45;;;2.83;;
62711;SDS011;48772;55.586;37.730;2023-05-27T10:24:19;6.22;;;2.90;;
62711;SDS011;48772;55.586;37.730;2023-05-27T10:26:45;9.82;;;2.88;;
62711;SDS011;48772;55.586;37.730;2023-05-27T10:29:16;5.20;;;2.45;;
62711;SDS011;48772;55.586;37.730;2023-05-27T10:31:51;11.07;;;2.80;;
62711;SDS011;48772;55.586;37.730;2023-05-27T10:34:18;10.43;;;3.03;;
62711;SDS011;48772;55.586;37.730;2023-05-27T10:36:44;9.90;;;3.15;;
62711;SDS011;48772;55.586;37.730;2023-05-27T10:39:17;7.47;;;3.00;;
62711;SDS011;48772;55.586;37.730;2023-05-27T10:44:32;4.22;;;2.72;;
62711;SDS011;48772;55.586;37.730;2023-05-27T10:49:36;7.18;;;2.45;;
62711;SDS011;48772;55.586;37.730;2023-05-27T10:52:05;3.80;;;2.42;;
62711;SDS011;48772;55.586;37.730;2023-05-27T10:54:35;8.52;;;3.08;;
62711;SDS011;48772;55.586;37.730;2023-05-27T10:57:02;8.30;;;2.60;;
62711;SDS011;48772;55.586;37.730;2023-05-27T10:59:29;9.98;;;2.38;;
62711;SDS011;48772;55.586;37.730;2023-05-27T11:02:06;8.65;;;5.95;;
62711;SDS011;48772;55.586;37.730;2023-05-27T11:04:35;5.72;;;2.97;;
62711;SDS011;48772;55.586;37.730;2023-05-27T11:07:03;6.13;;;3.28;;
62711;SDS011;48772;55.586;37.730;2023-05-27T11:09:30;5.18;;;3.13;;
62711;SDS011;48772;55.586;37.730;2023-05-27T11:12:00;10.43;;;5.32;;
62711;SDS011;48772;55.586;37.730;2023-05-27T11:16:56;3.28;;;2.40;;
62711;SDS011;48772;55.586;37.730;2023-05-27T11:19:22;7.50;;;2.95;;
62711;SDS011;48772;55.586;37.730;2023-05-27T11:21:48;9.65;;;2.60;;
62711;SDS011;48772;55.586;37.730;2023-05-27T11:24:15;3.42;;;2.45;;
62711;SDS011;48772;55.586;37.730;2023-05-27T11:26:42;12.05;;;2.53;;
62711;SDS011;48772;55.586;37.730;2023-05-27T11:29:12;7.03;;;2.47;;
62711;SDS011;48772;55.586;37.730;2023-05-27T11:31:39;11.13;;;2.75;;
62711;SDS011;48772;55.586;37.730;2023-05-27T11:34:12;5.03;;;2.60;;
62711;SDS011;48772;55.586;37.730;2023-05-27T11:36:39;7.47;;;2.70;;
62711;SDS011;48772;55.586;37.730;2023-05-27T11:39:09;7.38;;;2.83;;
62711;SDS011;48772;55.586;37.730;2023-05-27T11:41:46;7.43;;;2.83;;
62711;SDS011;48772;55.586;37.730;2023-05-27T11:44:15;9.45;;;2.65;;
62711;SDS011;48772;55.586;37.730;2023-05-27T11:46:41;5.03;;;2.65;;
62711;SDS011;48772;55.586;37.730;2023-05-27T11:49:09;2.58;;;2.38;;
62711;SDS011;48772;55.586;37.730;2023-05-27T11:51:36;8.35;;;2.47;;
62711;SDS011;48772;55.586;37.730;2023-05-27T11:54:03;10.57;;;2.65;;
62711;SDS011;48772;55.586;37.730;2023-05-27T11:56:29;3.63;;;2.65;;
62711;SDS011;48772;55.586;37.730;2023-05-27T11:58:55;2.97;;;2.33;;
62711;SDS011;48772;55.586;37.730;2023-05-27T12:01:22;2.60;;;2.33;;
62711;SDS011;48772;55.586;37.730;2023-05-27T12:03:48;8.40;;;2.70;;
62711;SDS011;48772;55.586;37.730;2023-05-27T12:06:14;6.88;;;2.80;;
62711;SDS011;48772;55.586;37.730;2023-05-27T12:08:41;7.70;;;2.80;;
62711;SDS011;48772;55.586;37.730;2023-05-27T12:11:07;6.93;;;2.60;;
62711;SDS011;48772;55.586;37.730;2023-05-27T12:13:33;7.45;;;2.60;;
62711;SDS011;48772;55.586;37.730;2023-05-27T12:15:59;9.23;;;2.90;;
62711;SDS011;48772;55.586;37.730;2023-05-27T12:18:25;3.42;;;2.20;;
62711;SDS011;48772;55.586;37.730;2023-05-27T12:20:51;4.07;;;2.38;;
62711;SDS011;48772;55.586;37.730;2023-05-27T12:23:17;5.68;;;2.42;;
62711;SDS011;48772;55.586;37.730;2023-05-27T12:25:49;5.65;;;2.70;;
62711;SDS011;48772;55.586;37.730;2023-05-27T12:28:18;5.90;;;2.42;;
62711;SDS011;48772;55.586;37.730;2023-05-27T12:30:43;7.45;;;2.45;;
62711;SDS011;48772;55.586;37.730;2023-05-27T12:33:09;9.75;;;2.75;;
62711;SDS011;48772;55.586;37.730;2023-05-27T12:35:35;8.90;;;2.72;;
62711;SDS011;48772;55.586;37.730;2023-05-27T12:38:01;9.55;;;2.95;;
62711;SDS011;48772;55.586;37.730;2023-05-27T12:40:27;8.55;;;3.65;;
62711;SDS011;48772;55.586;37.730;2023-05-27T12:42:53;4.97;;;2.55;;
62711;SDS011;48772;55.586;37.730;2023-05-27T12:45:19;14.95;;;2.90;;
62711;SDS011;48772;55.586;37.730;2023-05-27T12:47:50;10.70;;;3.20;;
62711;SDS011;48772;55.586;37.730;2023-05-27T12:50:16;9.68;;;3.30;;
62711;SDS011;48772;55.586;37.730;2023-05-27T12:52:42;6.07;;;2.60;;
62711;SDS011;48772;55.586;37.730;2023-05-27T12:55:12;6.07;;;2.35;;
62711;SDS011;48772;55.586;37.730;2023-05-27T12:57:43;10.90;;;2.40;;
62711;SDS011;48772;55.586;37.730;2023-05-27T13:00:29;7.88;;;2.50;;
62711;SDS011;48772;55.586;37.730;2023-05-27T13:02:57;7.10;;;2.38;;
62711;SDS011;48772;55.586;37.730;2023-05-27T13:05:23;6.68;;;2.40;;
62711;SDS011;48772;55.586;37.730;2023-05-27T13:07:53;8.75;;;2.90;;
62711;SDS011;48772;55.586;37.730;2023-05-27T13:10:21;6.18;;;2.30;;
62711;SDS011;48772;55.586;37.730;2023-05-27T13:12:47;9.75;;;3.55;;
62711;SDS011;48772;55.586;37.730;2023-05-27T13:15:13;7.90;;;2.65;;
62711;SDS011;48772;55.586;37.730;2023-05-27T13:17:42;12.00;;;3.10;;
62711;SDS011;48772;55.586;37.730;2023-05-27T13:20:12;5.55;;;2.50;;
62711;SDS011;48772;55.586;37.730;2023-05-27T13:22:39;5.85;;;2.22;;
62711;SDS011;48772;55.586;37.730;2023-05-27T13:25:06;4.40;;;2.30;;
62711;SDS011;48772;55.586;37.730;2023-05-27T13:27:32;31.58;;;5.90;;
62711;SDS011;48772;55.586;37.730;2023-05-27T13:29:58;8.18;;;2.80;;
62711;SDS011;48772;55.586;37.730;2023-05-27T13:32:25;15.15;;;4.00;;
62711;SDS011;48772;55.586;37.730;2023-05-27T13:34:51;22.05;;;4.63;;
62711;SDS011;48772;55.586;37.730;2023-05-27T13:37:17;28.65;;;5.63;;
62711;SDS011;48772;55.586;37.730;2023-05-27T13:39:43;16.25;;;4.10;;
62711;SDS011;48772;55.586;37.730;2023-05-27T13:42:10;17.55;;;3.78;;
62711;SDS011;48772;55.586;37.730;2023-05-27T13:44:36;10.68;;;3.50;;
62711;SDS011;48772;55.586;37.730;2023-05-27T13:47:02;9.77;;;2.63;;
62711;SDS011;48772;55.586;37.730;2023-05-27T13:49:28;10.63;;;2.45;;
62711;SDS011;48772;55.586;37.730;2023-05-27T13:51:54;6.18;;;2.28;;
62711;SDS011;48772;55.586;37.730;2023-05-27T13:54:21;7.18;;;2.60;;
62711;SDS011;48772;55.586;37.730;2023-05-27T13:56:46;7.65;;;2.38;;
62711;SDS011;48772;55.586;37.730;2023-05-27T13:59:13;5.82;;;2.35;;
62711;SDS011;48772;55.586;37.730;2023-05-27T14:01:40;9.55;;;2.58;;
62711;SDS011;48772;55.586;37.730;2023-05-27T14:04:06;7.78;;;2.60;;
62711;SDS011;48772;55.586;37.730;2023-05-27T14:06:32;8.00;;;2.72;;
62711;SDS011;48772;55.586;37.730;2023-05-27T14:08:58;8.57;;;2.38;;
62711;SDS011;48772;55.586;37.730;2023-05-27T14:11:25;10.23;;;2.50;;
62711;SDS011;48772;55.586;37.730;2023-05-27T14:13:51;5.55;;;2.22;;
62711;SDS011;48772;55.586;37.730;2023-05-27T14:16:21;4.88;;;2.40;;
62711;SDS011;48772;55.586;37.730;2023-05-27T14:18:48;9.80;;;2.75;;
62711;SDS011;48772;55.586;37.730;2023-05-27T14:21:15;6.93;;;2.45;;
62711;SDS011;48772;55.586;37.730;2023-05-27T14:23:42;3.63;;;1.98;;
62711;SDS011;48772;55.586;37.730;2023-05-27T14:26:09;8.93;;;2.40;;
62711;SDS011;48772;55.586;37.730;2023-05-27T14:28:36;4.93;;;2.22;;
62711;SDS011;48772;55.586;37.730;2023-05-27T14:31:02;5.90;;;2.38;;
62711;SDS011;48772;55.586;37.730;2023-05-27T14:33:29;5.35;;;2.38;;
62711;SDS011;48772;55.586;37.730;2023-05-27T14:35:55;7.22;;;2.58;;
62711;SDS011;48772;55.586;37.730;2023-05-27T14:38:21;12.73;;;2.45;;
62711;SDS011;48772;55.586;37.730;2023-05-27T14:40:47;4.88;;;2.00;;
62711;SDS011;48772;55.586;37.730;2023-05-27T14:43:15;6.97;;;2.67;;
62711;SDS011;48772;55.586;37.730;2023-05-27T14:45:41;7.00;;;2.50;;
62711;SDS011;48772;55.586;37.730;2023-05-27T14:48:07;4.90;;;2.78;;
62711;SDS011;48772;55.586;37.730;2023-05-27T14:50:33;5.28;;;2.35;;
62711;SDS011;48772;55.586;37.730;2023-05-27T14:52:59;7.45;;;2.45;;
62711;SDS011;48772;55.586;37.730;2023-05-27T14:55:27;6.95;;;2.50;;
62711;SDS011;48772;55.586;37.730;2023-05-27T14:57:53;5.03;;;2.55;;
62711;SDS011;48772;55.586;37.730;2023-05-27T15:00:19;9.85;;;2.60;;